Weather at Bellarena Airfield

Public forecast

Using degrees Celsius for public forecast. Weather courtesy of forecast.io.

Closest aviation weather report (METAR) to Bellarena Airfield

Closest report is City of Derry Airport, 8.8 nm (16.3 km) SW.

2024/02/25 12:20 (retrieved 15 minutes ago)

EGAE 251220Z 02003KT 9999 FEW023 06/04 Q0998

Closest aviation forecast (TAF) to Bellarena Airfield

Closest forecast is Belfast International Airport, 38.9 nm (72.1 km) SE.

2024/02/25 12:00 (retrieved 35 minutes ago)

TAF EGAA 251057Z 2512/2612 09008KT 9999 FEW030 PROB40 TEMPO 2512/2517 7000 SHRA BECMG 2609/2612 36010KT